Time;durP1;ratioP1;P1;durP2;ratioP2;P2;SDS_P1;SDS_P2;PMS_P1;PMS_P2;Temp;Humidity;BMP_temperature;BMP_pressure;BME280_temperature;BME280_humidity;BME280_pressure;Samples;Min_cycle;Max_cycle;Signal;HPM_P1;HPM_P2
2023/12/17 06:04:28;;;;;;;36.60;15.80;;;;;;;;;;4994023;28;20570;-75
2023/12/17 06:06:57;;;;;;;30.57;14.77;;;;;;;;;;4995091;28;20442;-75
2023/12/17 06:09:23;;;;;;;28.77;14.50;;;;;;;;;;4995555;28;20499;-75
2023/12/17 06:11:49;;;;;;;33.70;16.70;;;;;;;;;;4994730;28;20430;-75
2023/12/17 06:14:17;;;;;;;30.03;15.00;;;;;;;;;;4995293;28;20507;-74
2023/12/17 06:16:43;;;;;;;36.13;15.57;;;;;;;;;;4995325;28;20437;-75
2023/12/17 06:19:09;;;;;;;28.40;14.60;;;;;;;;;;4994857;28;20414;-74
2023/12/17 06:21:35;;;;;;;30.43;15.60;;;;;;;;;;4993435;28;20450;-75
2023/12/17 06:24:02;;;;;;;25.27;13.80;;;;;;;;;;4994977;28;20415;-74
2023/12/17 06:26:28;;;;;;;30.40;15.73;;;;;;;;;;4994880;28;20419;-73
2023/12/17 06:28:54;;;;;;;27.47;14.30;;;;;;;;;;4993341;28;20426;-74
2023/12/17 06:31:20;;;;;;;25.90;13.90;;;;;;;;;;4994713;28;20445;-74
2023/12/17 06:33:46;;;;;;;29.90;14.70;;;;;;;;;;4994668;28;20894;-74
2023/12/17 06:36:12;;;;;;;26.47;14.73;;;;;;;;;;4994590;28;20411;-74
2023/12/17 06:38:41;;;;;;;31.63;14.50;;;;;;;;;;4994614;28;20430;-74
2023/12/17 06:41:11;;;;;;;27.17;14.10;;;;;;;;;;4994265;28;20906;-74
2023/12/17 06:43:37;;;;;;;27.43;14.03;;;;;;;;;;4994409;28;20399;-74
2023/12/17 06:46:04;;;;;;;34.33;14.30;;;;;;;;;;4994446;28;20427;-75
2023/12/17 06:48:30;;;;;;;29.13;15.17;;;;;;;;;;4994489;28;20415;-74
2023/12/17 06:50:56;;;;;;;34.33;15.73;;;;;;;;;;4994172;28;20439;-74
2023/12/17 06:53:22;;;;;;;27.63;14.07;;;;;;;;;;4994297;28;20513;-74
2023/12/17 06:55:48;;;;;;;30.97;14.50;;;;;;;;;;4994519;28;20494;-74
2023/12/17 06:58:14;;;;;;;28.13;13.43;;;;;;;;;;4992921;28;20431;-73
2023/12/17 07:00:40;;;;;;;26.47;12.93;;;;;;;;;;4994083;28;20517;-74
2023/12/17 07:03:06;;;;;;;31.60;15.40;;;;;;;;;;4994306;28;20465;-74
2023/12/17 07:05:32;;;;;;;30.93;15.27;;;;;;;;;;4995452;28;20422;-73
2023/12/17 07:07:58;;;;;;;30.70;14.97;;;;;;;;;;4993943;28;20415;-74
2023/12/17 07:10:24;;;;;;;28.73;13.60;;;;;;;;;;4993785;28;20437;-74
2023/12/17 07:12:50;;;;;;;28.27;13.90;;;;;;;;;;4993791;28;20430;-74
2023/12/17 07:15:16;;;;;;;27.87;14.57;;;;;;;;;;4993813;28;20469;-74
2023/12/17 07:17:43;;;;;;;30.00;15.40;;;;;;;;;;4993795;28;20411;-74
2023/12/17 07:20:10;;;;;;;30.70;16.10;;;;;;;;;;4993371;28;20411;-73
2023/12/17 07:22:36;;;;;;;32.17;16.43;;;;;;;;;;4993662;28;20418;-77
2023/12/17 07:25:02;;;;;;;30.77;15.33;;;;;;;;;;4992825;28;20415;-74
2023/12/17 07:27:28;;;;;;;31.07;16.03;;;;;;;;;;4993862;28;20469;-75
2023/12/17 07:29:54;;;;;;;29.80;15.90;;;;;;;;;;4993449;28;20415;-75
2023/12/17 07:32:20;;;;;;;39.77;17.07;;;;;;;;;;4993589;28;20430;-75
2023/12/17 07:34:46;;;;;;;32.00;15.47;;;;;;;;;;4993479;28;20508;-75
2023/12/17 07:37:12;;;;;;;41.37;15.83;;;;;;;;;;4993657;28;20505;-75
2023/12/17 07:39:38;;;;;;;24.87;14.97;;;;;;;;;;4993353;28;20894;-75
2023/12/17 07:42:04;;;;;;;21.63;12.87;;;;;;;;;;4993357;28;20435;-78
2023/12/17 07:44:30;;;;;;;32.93;16.00;;;;;;;;;;4993969;28;20411;-75
2023/12/17 07:46:57;;;;;;;26.70;16.83;;;;;;;;;;4994354;28;20415;-73
2023/12/17 07:49:23;;;;;;;29.67;16.27;;;;;;;;;;4993853;28;20414;-73
2023/12/17 07:51:49;;;;;;;28.80;14.20;;;;;;;;;;4991867;28;20942;-74
2023/12/17 07:54:15;;;;;;;32.23;15.17;;;;;;;;;;4993154;28;20490;-76
2023/12/17 07:56:41;;;;;;;27.87;14.97;;;;;;;;;;4993220;28;20423;-75
2023/12/17 07:59:07;;;;;;;33.23;15.93;;;;;;;;;;4993242;28;20407;-75
2023/12/17 08:01:36;;;;;;;26.23;14.13;;;;;;;;;;4993027;28;21012;-75
2023/12/17 08:04:02;;;;;;;36.27;14.43;;;;;;;;;;4993320;28;20846;-75
2023/12/17 08:06:28;;;;;;;34.13;17.97;;;;;;;;;;4993042;28;20902;-75
2023/12/17 08:08:54;;;;;;;30.80;14.50;;;;;;;;;;4991604;28;20426;-76
2023/12/17 08:11:21;;;;;;;25.50;14.60;;;;;;;;;;4991283;28;20546;-77
2023/12/17 08:13:47;;;;;;;23.93;13.37;;;;;;;;;;4992774;28;20454;-75
2023/12/17 08:16:13;;;;;;;23.63;11.50;;;;;;;;;;4991739;28;20445;-76
2023/12/17 08:18:39;;;;;;;26.10;12.83;;;;;;;;;;4992888;28;20500;-76
2023/12/17 08:21:05;;;;;;;21.00;13.33;;;;;;;;;;4991151;28;20524;-75
2023/12/17 08:23:31;;;;;;;22.83;12.60;;;;;;;;;;4992546;28;20403;-75
2023/12/17 08:25:58;;;;;;;23.33;12.60;;;;;;;;;;4992554;28;20429;-75
2023/12/17 08:28:24;;;;;;;20.90;12.83;;;;;;;;;;4992528;28;20403;-75
2023/12/17 08:30:50;;;;;;;18.77;10.60;;;;;;;;;;4992601;28;20431;-75
2023/12/17 08:33:16;;;;;;;24.37;12.40;;;;;;;;;;4991274;28;20466;-76
2023/12/17 08:35:42;;;;;;;18.60;10.40;;;;;;;;;;4992462;28;20415;-75
2023/12/17 08:38:08;;;;;;;20.93;12.03;;;;;;;;;;4992568;28;20494;-75
2023/12/17 08:40:37;;;;;;;18.37;10.40;;;;;;;;;;4992506;28;20968;-75
2023/12/17 08:43:03;;;;;;;18.37;11.40;;;;;;;;;;4994421;28;20833;-75
2023/12/17 08:45:29;;;;;;;17.03;9.90;;;;;;;;;;4992536;28;20990;-74
2023/12/17 08:47:55;;;;;;;19.33;12.07;;;;;;;;;;4992454;28;20411;-75
2023/12/17 08:50:21;;;;;;;15.67;11.27;;;;;;;;;;4992310;28;20473;-76
2023/12/17 08:52:47;;;;;;;20.50;11.40;;;;;;;;;;4992476;28;20521;-74
2023/12/17 08:55:13;;;;;;;22.53;11.53;;;;;;;;;;4992365;28;20778;-76
2023/12/17 08:57:39;;;;;;;21.93;10.53;;;;;;;;;;4991041;28;20415;-75
2023/12/17 09:00:05;;;;;;;17.97;10.67;;;;;;;;;;4992132;28;20441;-75
2023/12/17 09:02:32;;;;;;;20.83;11.00;;;;;;;;;;4992019;28;20864;-76
2023/12/17 09:04:58;;;;;;;18.73;10.37;;;;;;;;;;4992236;28;20447;-75
2023/12/17 09:07:24;;;;;;;19.90;11.70;;;;;;;;;;4992118;28;20419;-76
2023/12/17 09:09:50;;;;;;;26.90;13.10;;;;;;;;;;4990867;28;20443;-75
2023/12/17 09:12:16;;;;;;;20.07;10.60;;;;;;;;;;4991999;28;20849;-75
2023/12/17 09:14:42;;;;;;;17.60;12.23;;;;;;;;;;4990856;28;20553;-74
2023/12/17 09:17:08;;;;;;;17.47;10.27;;;;;;;;;;4991986;28;20490;-74
2023/12/17 09:19:34;;;;;;;22.37;10.77;;;;;;;;;;4992069;28;20945;-74
2023/12/17 09:22:00;;;;;;;16.93;10.93;;;;;;;;;;4991614;28;20483;-73
2023/12/17 09:24:27;;;;;;;17.13;10.27;;;;;;;;;;4992121;28;20422;-74
2023/12/17 09:26:53;;;;;;;18.90;11.17;;;;;;;;;;4992034;28;20434;-74
2023/12/17 09:29:20;;;;;;;15.70;9.40;;;;;;;;;;4991693;28;20505;-74
2023/12/17 09:31:46;;;;;;;21.23;11.40;;;;;;;;;;4991319;28;20431;-75
2023/12/17 09:34:14;;;;;;;18.33;10.57;;;;;;;;;;4991204;28;20505;-74
2023/12/17 09:36:40;;;;;;;18.30;10.87;;;;;;;;;;4991726;28;20415;-74
2023/12/17 09:39:06;;;;;;;17.87;9.60;;;;;;;;;;4992137;28;20407;-74
2023/12/17 09:41:32;;;;;;;19.63;10.73;;;;;;;;;;4990142;28;20869;-74
2023/12/17 09:43:59;;;;;;;18.50;11.53;;;;;;;;;;4993511;28;20451;-75
2023/12/17 09:46:25;;;;;;;19.90;10.80;;;;;;;;;;4991402;28;20423;-75
2023/12/17 09:48:51;;;;;;;21.87;11.37;;;;;;;;;;4994851;28;20936;-74
2023/12/17 09:51:18;;;;;;;30.37;14.53;;;;;;;;;;4993579;28;20842;-74
2023/12/17 09:53:44;;;;;;;25.60;11.80;;;;;;;;;;4994956;28;20464;-76
2023/12/17 09:56:13;;;;;;;18.73;12.00;;;;;;;;;;4994929;28;20950;-75
2023/12/17 09:58:39;;;;;;;16.60;10.70;;;;;;;;;;4995106;28;20411;-74
2023/12/17 10:01:05;;;;;;;17.10;10.80;;;;;;;;;;4994760;28;20495;-74
2023/12/17 10:03:33;;;;;;;18.73;11.03;;;;;;;;;;4994854;28;20470;-75
2023/12/17 10:05:59;;;;;;;18.20;10.00;;;;;;;;;;4995782;28;20415;-74
2023/12/17 10:08:26;;;;;;;19.20;11.97;;;;;;;;;;4995698;28;20806;-74
2023/12/17 10:10:52;;;;;;;20.33;11.43;;;;;;;;;;4993218;28;20442;-73
2023/12/17 10:13:18;;;;;;;21.13;13.80;;;;;;;;;;4995712;28;20968;-74
2023/12/17 10:15:48;;;;;;;27.97;12.07;;;;;;;;;;4995626;28;20438;-75
2023/12/17 10:18:14;;;;;;;18.87;11.37;;;;;;;;;;4995541;28;20406;-74
2023/12/17 10:20:40;;;;;;;24.20;12.10;;;;;;;;;;4993284;28;20442;-74
2023/12/17 10:23:06;;;;;;;21.03;12.20;;;;;;;;;;4993825;28;20426;-74
2023/12/17 10:25:32;;;;;;;19.73;11.93;;;;;;;;;;4995401;28;20424;-75
2023/12/17 10:27:59;;;;;;;18.30;10.63;;;;;;;;;;4994799;28;20421;-74
2023/12/17 10:30:31;;;;;;;18.37;11.20;;;;;;;;;;4994210;28;20407;-77
2023/12/17 10:32:58;;;;;;;18.40;11.37;;;;;;;;;;4994920;28;20863;-75
2023/12/17 10:35:25;;;;;;;17.50;10.97;;;;;;;;;;4995586;28;20458;-74
2023/12/17 10:37:54;;;;;;;21.90;12.30;;;;;;;;;;4994603;28;20965;-75
2023/12/17 10:40:30;;;;;;;15.80;10.43;;;;;;;;;;4993973;28;20441;-76
2023/12/17 10:42:57;;;;;;;19.97;11.33;;;;;;;;;;4994501;28;20942;-76
2023/12/17 10:45:24;;;;;;;18.87;9.20;;;;;;;;;;4995759;28;20415;-75
2023/12/17 10:47:56;;;;;;;17.73;11.07;;;;;;;;;;4995775;28;20403;-73
2023/12/17 10:50:22;;;;;;;14.53;10.07;;;;;;;;;;4994091;28;20407;-73
2023/12/17 10:52:49;;;;;;;23.27;10.03;;;;;;;;;;4994095;28;20465;-73
2023/12/17 10:55:15;;;;;;;14.80;9.27;;;;;;;;;;4994159;28;20781;-73
2023/12/17 10:57:44;;;;;;;21.50;10.67;;;;;;;;;;4994730;28;20442;-73
2023/12/17 11:00:11;;;;;;;19.23;12.17;;;;;;;;;;4993406;28;20459;-73
2023/12/17 11:02:38;;;;;;;22.77;11.10;;;;;;;;;;4993459;28;20431;-73
2023/12/17 11:05:05;;;;;;;20.47;11.40;;;;;;;;;;4991990;28;20422;-73
2023/12/17 11:07:31;;;;;;;19.87;12.13;;;;;;;;;;4993657;28;20465;-73
2023/12/17 11:10:00;;;;;;;15.60;11.17;;;;;;;;;;4993018;28;20415;-74
2023/12/17 11:12:26;;;;;;;22.00;11.43;;;;;;;;;;4993819;28;20435;-73
2023/12/17 11:14:52;;;;;;;15.27;10.47;;;;;;;;;;4994037;28;20565;-73
2023/12/17 11:17:18;;;;;;;15.70;9.80;;;;;;;;;;4993706;28;20925;-74
2023/12/17 11:19:57;;;;;;;18.07;11.53;;;;;;;;;;4994113;28;20882;-73
2023/12/17 11:22:23;;;;;;;31.17;11.23;;;;;;;;;;4992500;28;20443;-73
2023/12/17 11:24:56;;;;;;;16.50;10.60;;;;;;;;;;4993571;28;20410;-73
2023/12/17 11:27:23;;;;;;;26.17;12.00;;;;;;;;;;4993976;28;20415;-73
2023/12/17 11:29:52;;;;;;;19.03;9.97;;;;;;;;;;4993416;28;20914;-73
2023/12/17 11:32:19;;;;;;;15.67;9.47;;;;;;;;;;4993212;28;20805;-73
2023/12/17 11:34:49;;;;;;;19.40;10.83;;;;;;;;;;4991875;28;20561;-73
2023/12/17 11:37:19;;;;;;;15.40;9.97;;;;;;;;;;4993281;28;20499;-73
2023/12/17 11:39:49;;;;;;;16.03;10.57;;;;;;;;;;4993375;28;20435;-73
2023/12/17 11:42:16;;;;;;;16.80;10.27;;;;;;;;;;4993251;28;20423;-73
2023/12/17 11:44:45;;;;;;;15.10;10.13;;;;;;;;;;4993363;28;20415;-73
2023/12/17 11:47:12;;;;;;;17.70;10.80;;;;;;;;;;4993261;28;20411;-73
2023/12/17 11:49:38;;;;;;;18.20;10.37;;;;;;;;;;4993038;28;20411;-73
2023/12/17 11:52:11;;;;;;;14.23;9.83;;;;;;;;;;4992819;28;20458;-73
2023/12/17 11:54:37;;;;;;;16.00;10.00;;;;;;;;;;4993132;28;20505;-73
2023/12/17 11:57:03;;;;;;;19.73;10.17;;;;;;;;;;4993298;28;20419;-73
2023/12/17 11:59:33;;;;;;;16.80;9.80;;;;;;;;;;4992951;28;20431;-73
2023/12/17 12:02:01;;;;;;;15.53;9.20;;;;;;;;;;4992700;28;20435;-73
2023/12/17 12:04:27;;;;;;;17.83;11.30;;;;;;;;;;4992952;28;20427;-73
2023/12/17 12:06:53;;;;;;;16.10;9.70;;;;;;;;;;4993029;28;20906;-73
2023/12/17 12:09:19;;;;;;;13.53;9.57;;;;;;;;;;4991198;28;20411;-73
2023/12/17 12:11:46;;;;;;;18.27;11.53;;;;;;;;;;4993012;28;20453;-73
2023/12/17 12:14:12;;;;;;;21.50;10.87;;;;;;;;;;4993439;28;20461;-73
2023/12/17 12:16:39;;;;;;;17.93;10.93;;;;;;;;;;4991717;28;20419;-74
2023/12/17 12:19:05;;;;;;;18.10;9.90;;;;;;;;;;4992656;28;20411;-74
2023/12/17 12:21:32;;;;;;;21.60;11.33;;;;;;;;;;4991277;28;20934;-73
2023/12/17 12:24:01;;;;;;;19.93;11.03;;;;;;;;;;4993201;28;20438;-74
2023/12/17 12:26:27;;;;;;;23.03;10.60;;;;;;;;;;4992560;28;20418;-74
2023/12/17 12:29:00;;;;;;;19.13;11.33;;;;;;;;;;4992619;28;20415;-73
2023/12/17 12:31:26;;;;;;;14.10;9.50;;;;;;;;;;4992533;28;20485;-74
2023/12/17 12:34:10;;;;;;;20.13;10.83;;;;;;;;;;4992730;28;20453;-74
2023/12/17 12:36:47;;;;;;;14.20;10.43;;;;;;;;;;4992538;28;20502;-74
2023/12/17 12:39:13;;;;;;;15.60;10.37;;;;;;;;;;4992667;28;20407;-74
2023/12/17 12:41:46;;;;;;;18.67;10.90;;;;;;;;;;4992960;28;20525;-74
2023/12/17 12:44:15;;;;;;;19.40;10.87;;;;;;;;;;4992899;28;20417;-74
2023/12/17 12:46:41;;;;;;;19.83;10.60;;;;;;;;;;4992534;28;20419;-74
2023/12/17 12:49:08;;;;;;;14.33;9.37;;;;;;;;;;4991274;28;20477;-73
2023/12/17 12:51:34;;;;;;;19.50;9.63;;;;;;;;;;4992459;28;20446;-74
2023/12/17 12:54:02;;;;;;;16.50;9.83;;;;;;;;;;4992188;28;21024;-74
2023/12/17 12:56:28;;;;;;;13.80;9.60;;;;;;;;;;4992260;28;20407;-74
2023/12/17 12:58:54;;;;;;;19.50;10.00;;;;;;;;;;4992213;28;20831;-74
2023/12/17 13:01:20;;;;;;;17.23;11.40;;;;;;;;;;4992195;28;20423;-74
2023/12/17 13:03:46;;;;;;;16.40;10.07;;;;;;;;;;4991979;28;20434;-74
2023/12/17 13:06:12;;;;;;;17.30;10.93;;;;;;;;;;4992359;28;20415;-74
2023/12/17 13:08:38;;;;;;;19.70;10.13;;;;;;;;;;4992264;28;20473;-74
2023/12/17 13:11:04;;;;;;;16.67;9.93;;;;;;;;;;4990533;28;21021;-74
2023/12/17 13:13:30;;;;;;;18.67;10.47;;;;;;;;;;4992077;28;20466;-74
2023/12/17 13:15:56;;;;;;;15.30;9.63;;;;;;;;;;4992145;28;20502;-74
2023/12/17 13:18:22;;;;;;;16.43;10.07;;;;;;;;;;4992223;28;20418;-74
2023/12/17 13:20:51;;;;;;;18.57;10.50;;;;;;;;;;4991966;28;20871;-74
2023/12/17 13:23:17;;;;;;;14.70;9.33;;;;;;;;;;4995185;28;20414;-74
2023/12/17 13:25:43;;;;;;;18.93;10.67;;;;;;;;;;4995997;28;20902;-74
2023/12/17 13:28:09;;;;;;;17.77;10.30;;;;;;;;;;4995888;28;20418;-74
2023/12/17 13:30:35;;;;;;;16.33;10.17;;;;;;;;;;4995781;28;20530;-74
2023/12/17 13:33:04;;;;;;;12.30;8.87;;;;;;;;;;4995764;28;20411;-74
2023/12/17 13:35:29;;;;;;;17.30;10.77;;;;;;;;;;4994281;28;20422;-74
2023/12/17 13:37:55;;;;;;;15.03;10.10;;;;;;;;;;4995459;28;20695;-74
2023/12/17 13:40:21;;;;;;;14.97;9.20;;;;;;;;;;4995327;28;20461;-74
2023/12/17 13:42:50;;;;;;;18.10;9.60;;;;;;;;;;4995654;28;20400;-74
2023/12/17 13:45:16;;;;;;;21.63;10.00;;;;;;;;;;4995511;28;20418;-74
2023/12/17 13:47:42;;;;;;;23.27;12.20;;;;;;;;;;4995634;28;20418;-74
2023/12/17 13:50:08;;;;;;;27.53;10.87;;;;;;;;;;4995259;28;20766;-74
2023/12/17 13:52:34;;;;;;;19.80;11.50;;;;;;;;;;4995345;28;20422;-74
2023/12/17 13:55:00;;;;;;;18.27;11.00;;;;;;;;;;4995190;28;20462;-75
2023/12/17 13:57:28;;;;;;;13.87;9.27;;;;;;;;;;4995365;28;20415;-74
2023/12/17 13:59:54;;;;;;;15.17;9.50;;;;;;;;;;4995188;28;20618;-74
2023/12/17 14:02:22;;;;;;;19.70;10.83;;;;;;;;;;4995329;28;20520;-74
2023/12/17 14:04:48;;;;;;;18.10;10.17;;;;;;;;;;4995237;28;20501;-74
2023/12/17 14:07:14;;;;;;;16.57;9.93;;;;;;;;;;4994920;28;20470;-75
2023/12/17 14:09:40;;;;;;;13.90;10.30;;;;;;;;;;4995140;28;20407;-74
2023/12/17 14:12:07;;;;;;;17.30;10.80;;;;;;;;;;4994680;28;20435;-74
2023/12/17 14:14:34;;;;;;;18.20;10.50;;;;;;;;;;4994744;28;20493;-74
2023/12/17 14:17:00;;;;;;;14.93;10.00;;;;;;;;;;4994934;28;20415;-74
2023/12/17 14:19:29;;;;;;;16.90;11.40;;;;;;;;;;4994989;28;20498;-73
2023/12/17 14:21:55;;;;;;;19.93;11.43;;;;;;;;;;4994573;28;20431;-74
2023/12/17 14:24:21;;;;;;;18.80;11.00;;;;;;;;;;4995025;28;20473;-74
2023/12/17 14:26:47;;;;;;;33.70;12.50;;;;;;;;;;4994810;28;20911;-74
2023/12/17 14:29:13;;;;;;;15.77;10.17;;;;;;;;;;4994800;28;21030;-74
2023/12/17 14:31:40;;;;;;;18.73;11.30;;;;;;;;;;4994444;28;20914;-74
2023/12/17 14:34:08;;;;;;;23.53;11.77;;;;;;;;;;4994337;28;20601;-74
2023/12/17 14:36:37;;;;;;;20.87;12.93;;;;;;;;;;4994419;28;20422;-74
2023/12/17 14:39:03;;;;;;;23.53;11.67;;;;;;;;;;4994511;28;20415;-74
2023/12/17 14:41:29;;;;;;;24.43;12.37;;;;;;;;;;4994173;28;20430;-74
2023/12/17 14:43:56;;;;;;;20.90;11.70;;;;;;;;;;4993231;28;20797;-74
2023/12/17 14:46:22;;;;;;;17.60;10.40;;;;;;;;;;4994423;28;20442;-74
2023/12/17 14:48:48;;;;;;;18.00;11.90;;;;;;;;;;4994223;28;20450;-74
2023/12/17 14:51:14;;;;;;;17.40;11.43;;;;;;;;;;4993898;28;20945;-74
2023/12/17 14:53:40;;;;;;;17.10;10.23;;;;;;;;;;4994282;28;20509;-74
2023/12/17 14:56:08;;;;;;;20.97;11.90;;;;;;;;;;4994223;28;20783;-73
2023/12/17 14:58:34;;;;;;;19.00;11.30;;;;;;;;;;4992866;28;20423;-75
2023/12/17 15:01:00;;;;;;;16.17;9.90;;;;;;;;;;4994493;28;20437;-74
2023/12/17 15:03:27;;;;;;;21.47;10.20;;;;;;;;;;4994511;28;20438;-74
2023/12/17 15:05:53;;;;;;;20.43;10.53;;;;;;;;;;4994130;28;20959;-74
2023/12/17 15:08:19;;;;;;;13.70;9.57;;;;;;;;;;4994256;28;20407;-74
2023/12/17 15:10:45;;;;;;;18.33;11.40;;;;;;;;;;4993854;28;20426;-74
2023/12/17 15:13:11;;;;;;;19.23;11.40;;;;;;;;;;4992923;28;20470;-74
2023/12/17 15:15:37;;;;;;;31.43;13.80;;;;;;;;;;4994444;28;20496;-74
2023/12/17 15:18:03;;;;;;;26.40;12.53;;;;;;;;;;4994083;28;20411;-74
2023/12/17 15:20:29;;;;;;;26.70;14.43;;;;;;;;;;4993770;28;20434;-73
2023/12/17 15:22:55;;;;;;;30.83;15.87;;;;;;;;;;4993860;28;20766;-75
2023/12/17 15:25:21;;;;;;;27.40;14.93;;;;;;;;;;4993725;28;20411;-74
2023/12/17 15:27:47;;;;;;;27.90;14.23;;;;;;;;;;4993540;28;20417;-74
2023/12/17 15:30:13;;;;;;;24.23;13.37;;;;;;;;;;4993185;28;20414;-74
2023/12/17 15:32:39;;;;;;;27.40;11.97;;;;;;;;;;4993556;28;20573;-74
2023/12/17 15:35:06;;;;;;;23.23;11.17;;;;;;;;;;4992214;28;20463;-76
2023/12/17 15:37:32;;;;;;;22.33;11.97;;;;;;;;;;4992311;28;20481;-74
2023/12/17 15:39:58;;;;;;;23.10;12.37;;;;;;;;;;4993286;28;20825;-73
2023/12/17 15:42:24;;;;;;;20.17;11.33;;;;;;;;;;4993554;28;20760;-75
2023/12/17 15:44:50;;;;;;;19.07;11.77;;;;;;;;;;4992535;28;20411;-75
2023/12/17 15:47:16;;;;;;;25.87;11.30;;;;;;;;;;4993484;28;20411;-75
2023/12/17 15:49:42;;;;;;;23.17;13.00;;;;;;;;;;4993265;28;20415;-75
2023/12/17 15:52:08;;;;;;;27.27;13.97;;;;;;;;;;4993370;28;20434;-75
2023/12/17 15:54:34;;;;;;;29.80;15.70;;;;;;;;;;4993150;28;20457;-75
2023/12/17 15:57:00;;;;;;;32.30;14.93;;;;;;;;;;4993094;28;20411;-75
2023/12/17 15:59:26;;;;;;;20.27;12.73;;;;;;;;;;4992790;28;20442;-75
2023/12/17 16:01:52;;;;;;;26.57;12.77;;;;;;;;;;4992718;28;20431;-75
2023/12/17 16:04:18;;;;;;;29.07;14.23;;;;;;;;;;4993443;28;20437;-74
2023/12/17 16:06:44;;;;;;;24.80;14.70;;;;;;;;;;4993085;28;20419;-75
2023/12/17 16:09:10;;;;;;;35.00;15.23;;;;;;;;;;4995540;28;20418;-74
2023/12/17 16:11:39;;;;;;;29.40;16.33;;;;;;;;;;4995778;28;20435;-74
2023/12/17 16:14:06;;;;;;;23.40;13.07;;;;;;;;;;4994615;28;20558;-75
2023/12/17 16:16:32;;;;;;;22.70;12.30;;;;;;;;;;4993358;28;20867;-75
2023/12/17 16:18:58;;;;;;;23.33;12.53;;;;;;;;;;4992046;28;20410;-75
2023/12/17 16:21:24;;;;;;;22.10;11.50;;;;;;;;;;4991484;28;20439;-74
2023/12/17 16:23:50;;;;;;;25.03;12.70;;;;;;;;;;4992851;28;20415;-74
2023/12/17 16:26:16;;;;;;;22.30;13.23;;;;;;;;;;4991434;28;20423;-74
2023/12/17 16:28:45;;;;;;;21.47;12.67;;;;;;;;;;4992780;28;20419;-74
2023/12/17 16:31:11;;;;;;;21.67;12.63;;;;;;;;;;4993181;28;20913;-73
2023/12/17 16:33:37;;;;;;;26.40;12.10;;;;;;;;;;4992844;28;20494;-74
2023/12/17 16:36:03;;;;;;;20.40;12.23;;;;;;;;;;4991354;28;20796;-74
2023/12/17 16:38:29;;;;;;;25.50;14.20;;;;;;;;;;4992716;28;20411;-74
2023/12/17 16:40:55;;;;;;;22.27;12.90;;;;;;;;;;4992462;28;20501;-74
2023/12/17 16:43:21;;;;;;;33.63;16.70;;;;;;;;;;4992838;28;20411;-74
2023/12/17 16:45:47;;;;;;;25.67;15.00;;;;;;;;;;4992532;28;20411;-74
2023/12/17 16:48:15;;;;;;;29.47;14.10;;;;;;;;;;4992670;28;20922;-74
2023/12/17 16:50:44;;;;;;;33.57;16.27;;;;;;;;;;4997322;28;20470;-74
2023/12/17 16:53:10;;;;;;;34.50;16.40;;;;;;;;;;5000381;28;20415;-74
2023/12/17 16:55:37;;;;;;;29.90;17.10;;;;;;;;;;4991761;28;20430;-74
2023/12/17 16:58:04;;;;;;;33.40;15.20;;;;;;;;;;4997733;28;20415;-74
2023/12/17 17:00:31;;;;;;;28.43;14.70;;;;;;;;;;4998963;28;20821;-74
2023/12/17 17:02:57;;;;;;;28.40;15.10;;;;;;;;;;4999157;28;20430;-74
2023/12/17 17:05:25;;;;;;;26.37;15.50;;;;;;;;;;4999106;28;20767;-74
2023/12/17 17:07:51;;;;;;;28.83;14.00;;;;;;;;;;4999936;28;20413;-75
2023/12/17 17:10:17;;;;;;;29.37;16.47;;;;;;;;;;4998523;28;20918;-75
2023/12/17 17:12:43;;;;;;;27.90;14.70;;;;;;;;;;4998857;28;20407;-74
2023/12/17 17:15:09;;;;;;;25.07;14.90;;;;;;;;;;4998712;28;20466;-74
2023/12/17 17:17:35;;;;;;;23.30;13.90;;;;;;;;;;4998991;28;20924;-74
2023/12/17 17:20:01;;;;;;;23.03;14.10;;;;;;;;;;4998540;28;20411;-75
2023/12/17 17:22:27;;;;;;;35.33;17.50;;;;;;;;;;5001029;28;20441;-73
2023/12/17 17:24:54;;;;;;;33.63;17.37;;;;;;;;;;5008036;28;20411;-73
2023/12/17 17:27:20;;;;;;;32.43;15.53;;;;;;;;;;5007342;28;20433;-75
2023/12/17 17:29:47;;;;;;;26.50;14.90;;;;;;;;;;5008345;28;20426;-73
2023/12/17 17:32:13;;;;;;;21.97;12.37;;;;;;;;;;5010002;28;20422;-74
2023/12/17 17:34:39;;;;;;;28.00;13.30;;;;;;;;;;5012360;28;20458;-76
2023/12/17 17:37:05;;;;;;;28.47;14.40;;;;;;;;;;5010082;28;20451;-76
2023/12/17 17:39:31;;;;;;;22.57;14.77;;;;;;;;;;5014147;28;20434;-74
2023/12/17 17:41:57;;;;;;;29.13;15.20;;;;;;;;;;5010328;28;20942;-74
2023/12/17 17:44:24;;;;;;;32.57;15.50;;;;;;;;;;5007575;28;20415;-74
2023/12/17 17:46:50;;;;;;;30.17;15.97;;;;;;;;;;5007164;28;20434;-75
2023/12/17 17:49:20;;;;;;;26.97;16.27;;;;;;;;;;5009708;28;20422;-77
2023/12/17 17:51:47;;;;;;;33.43;16.10;;;;;;;;;;5010240;28;20437;-76
2023/12/17 17:54:13;;;;;;;37.03;16.27;;;;;;;;;;5011486;28;20457;-75
2023/12/17 17:56:39;;;;;;;30.53;15.27;;;;;;;;;;5014369;28;20415;-77
2023/12/17 17:59:05;;;;;;;33.00;16.20;;;;;;;;;;5014116;28;20482;-77
2023/12/17 18:01:34;;;;;;;27.87;15.33;;;;;;;;;;5013484;28;20439;-76
2023/12/17 18:04:02;;;;;;;31.67;16.50;;;;;;;;;;5012859;28;20431;-76
2023/12/17 18:06:28;;;;;;;34.93;17.47;;;;;;;;;;5010409;28;20415;-75
2023/12/17 18:08:54;;;;;;;33.47;15.77;;;;;;;;;;5006528;28;20788;-76
2023/12/17 18:11:20;;;;;;;33.40;16.30;;;;;;;;;;5009144;28;20443;-76
2023/12/17 18:13:46;;;;;;;32.60;15.43;;;;;;;;;;5011316;28;20462;-75
2023/12/17 18:16:22;;;;;;;31.57;16.20;;;;;;;;;;5011150;28;20414;-77
2023/12/17 18:18:50;;;;;;;29.63;15.60;;;;;;;;;;5007611;28;20421;-75
2023/12/17 18:21:16;;;;;;;31.30;16.43;;;;;;;;;;4999442;28;20801;-75
2023/12/17 18:23:42;;;;;;;31.13;15.93;;;;;;;;;;5000225;28;20419;-76
2023/12/17 18:26:08;;;;;;;26.93;15.83;;;;;;;;;;4999304;28;20410;-75
2023/12/17 18:28:34;;;;;;;26.30;15.30;;;;;;;;;;4998484;28;20442;-77
2023/12/17 18:31:00;;;;;;;34.60;17.87;;;;;;;;;;4998141;28;20934;-75
2023/12/17 18:33:26;;;;;;;30.50;16.10;;;;;;;;;;4997553;28;20533;-75
2023/12/17 18:35:52;;;;;;;26.43;15.33;;;;;;;;;;5000144;28;20931;-75
2023/12/17 18:38:20;;;;;;;37.87;17.17;;;;;;;;;;5000378;28;20442;-74
2023/12/17 18:40:47;;;;;;;40.63;17.23;;;;;;;;;;5000300;28;20426;-75
2023/12/17 18:43:13;;;;;;;32.27;17.93;;;;;;;;;;4999026;28;20469;-76
2023/12/17 18:45:39;;;;;;;35.47;17.93;;;;;;;;;;5007873;28;20415;-77
2023/12/17 18:48:05;;;;;;;34.80;17.60;;;;;;;;;;5006591;28;20418;-76
2023/12/17 18:50:31;;;;;;;35.70;18.97;;;;;;;;;;4997849;28;20431;-75
2023/12/17 18:52:57;;;;;;;34.60;17.40;;;;;;;;;;4997674;28;20489;-76
2023/12/17 18:55:23;;;;;;;35.47;18.80;;;;;;;;;;4996805;28;20473;-76
2023/12/17 18:57:49;;;;;;;42.70;17.33;;;;;;;;;;4997634;28;20415;-76
2023/12/17 19:00:16;;;;;;;56.27;23.60;;;;;;;;;;5003418;28;20410;-77
2023/12/17 19:02:42;;;;;;;43.33;20.13;;;;;;;;;;5005957;28;20422;-75
2023/12/17 19:05:11;;;;;;;36.17;20.53;;;;;;;;;;4999078;28;20438;-75
2023/12/17 19:07:37;;;;;;;38.67;18.83;;;;;;;;;;4998990;28;20426;-76
2023/12/17 19:10:04;;;;;;;43.63;20.87;;;;;;;;;;4996210;28;20419;-76
2023/12/17 19:12:30;;;;;;;41.40;21.07;;;;;;;;;;4996716;28;20501;-77
2023/12/17 19:14:56;;;;;;;40.63;20.77;;;;;;;;;;4997512;28;20648;-76
2023/12/17 19:17:22;;;;;;;43.00;21.80;;;;;;;;;;4998997;28;20411;-74
2023/12/17 19:19:48;;;;;;;43.93;22.47;;;;;;;;;;4999600;28;20403;-75
2023/12/17 19:22:14;;;;;;;35.30;18.47;;;;;;;;;;4996010;28;20427;-76
2023/12/17 19:24:40;;;;;;;41.63;23.40;;;;;;;;;;4995552;28;20494;-76
2023/12/17 19:27:06;;;;;;;39.50;21.50;;;;;;;;;;5001012;28;20429;-76
2023/12/17 19:29:37;;;;;;;43.97;19.90;;;;;;;;;;4996119;28;20418;-78
2023/12/17 19:32:03;;;;;;;46.43;22.97;;;;;;;;;;4994993;28;20431;-77
2023/12/17 19:34:38;;;;;;;45.27;22.80;;;;;;;;;;4995579;28;20463;-74
2023/12/17 19:37:04;;;;;;;45.03;20.40;;;;;;;;;;4993469;28;20422;-76
2023/12/17 19:39:30;;;;;;;32.40;17.57;;;;;;;;;;4994404;28;20784;-76
2023/12/17 19:41:56;;;;;;;35.27;18.60;;;;;;;;;;4992746;28;20795;-76
2023/12/17 19:44:22;;;;;;;36.10;20.10;;;;;;;;;;4994213;28;20415;-77
2023/12/17 19:46:48;;;;;;;39.43;19.47;;;;;;;;;;4994255;28;20411;-77
2023/12/17 19:49:14;;;;;;;40.07;20.60;;;;;;;;;;4994520;28;20422;-76
2023/12/17 19:51:40;;;;;;;33.80;19.10;;;;;;;;;;4994212;28;20466;-76
2023/12/17 19:54:06;;;;;;;43.60;22.30;;;;;;;;;;4994479;28;20521;-75
2023/12/17 19:56:32;;;;;;;40.53;21.93;;;;;;;;;;4994576;28;20502;-75
2023/12/17 19:58:58;;;;;;;64.83;28.10;;;;;;;;;;4999844;28;20403;-75
2023/12/17 20:01:27;;;;;;;51.77;23.10;;;;;;;;;;5008802;28;20431;-75
2023/12/17 20:03:53;;;;;;;41.87;21.93;;;;;;;;;;5011992;28;20439;-77
2023/12/17 20:06:22;;;;;;;43.90;20.83;;;;;;;;;;5006063;28;20454;-77
2023/12/17 20:08:50;;;;;;;43.77;22.40;;;;;;;;;;5002707;28;20421;-78
2023/12/17 20:11:16;;;;;;;44.73;23.70;;;;;;;;;;5004791;28;20441;-76
2023/12/17 20:13:42;;;;;;;49.47;23.40;;;;;;;;;;5008171;28;20462;-77
2023/12/17 20:16:09;;;;;;;47.90;22.70;;;;;;;;;;5005783;28;20843;-76
2023/12/17 20:18:35;;;;;;;44.73;23.60;;;;;;;;;;4998128;28;20494;-77